createdAt,value
2022-08-07T00:00:52.549Z,5.95
2022-08-07T00:03:20.365Z,4.32
2022-08-07T00:05:54.308Z,5.63
2022-08-07T00:08:25.184Z,4.32
2022-08-07T00:10:57.482Z,4.03
2022-08-07T00:13:26.910Z,4.90
2022-08-07T00:15:55.297Z,4.15
2022-08-07T00:18:25.334Z,4.30
2022-08-07T00:20:56.739Z,4.53
2022-08-07T00:23:25.401Z,4.80
2022-08-07T00:26:00.041Z,7.10
2022-08-07T00:28:33.674Z,4.72
2022-08-07T00:31:06.096Z,6.38
2022-08-07T00:33:41.250Z,3.55
2022-08-07T00:36:10.087Z,4.80
2022-08-07T00:38:38.967Z,4.40
2022-08-07T00:41:10.026Z,4.25
2022-08-07T00:44:01.960Z,4.50
2022-08-07T00:46:33.004Z,6.35
2022-08-07T00:49:02.998Z,3.38
2022-08-07T00:51:57.526Z,4.05
2022-08-07T00:54:19.799Z,3.95
2022-08-07T00:56:49.832Z,4.75
2022-08-07T00:59:20.324Z,4.28
2022-08-07T01:02:13.891Z,4.85
2022-08-07T01:04:58.359Z,3.97
2022-08-07T01:07:29.480Z,4.30
2022-08-07T01:10:06.557Z,4.70
2022-08-07T01:12:53.349Z,4.15
2022-08-07T01:16:00.696Z,3.25
2022-08-07T01:18:16.766Z,4.93
2022-08-07T01:21:05.377Z,4.75
2022-08-07T01:23:51.657Z,3.42
2022-08-07T01:26:20.814Z,4.15
2022-08-07T01:28:50.673Z,3.45
2022-08-07T01:31:21.288Z,3.50
2022-08-07T01:33:55.267Z,3.97
2022-08-07T01:39:04.189Z,4.82
2022-08-07T01:41:40.778Z,3.75
2022-08-07T01:44:22.768Z,4.65
2022-08-07T01:46:52.088Z,5.28
2022-08-07T01:49:21.463Z,7.00
2022-08-07T01:52:01.884Z,7.93
2022-08-07T01:54:41.652Z,3.95
2022-08-07T01:57:27.553Z,3.25
2022-08-07T02:00:12.853Z,3.92
2022-08-07T02:03:18.136Z,4.47
2022-08-07T02:05:48.092Z,4.18
2022-08-07T02:08:29.412Z,7.68
2022-08-07T02:11:00.953Z,2.90
2022-08-07T02:13:57.841Z,6.38
2022-08-07T02:16:28.606Z,4.78
2022-08-07T02:20:04.937Z,5.88
2022-08-07T02:21:58.660Z,3.65
2022-08-07T02:24:29.511Z,4.68
2022-08-07T02:27:02.749Z,4.78
2022-08-07T02:29:36.817Z,7.05
2022-08-07T02:32:18.871Z,3.90
2022-08-07T02:34:52.164Z,7.13
2022-08-07T02:37:23.675Z,5.30
2022-08-07T02:40:02.150Z,4.50
2022-08-07T02:42:41.797Z,4.38
2022-08-07T02:45:58.511Z,4.45
2022-08-07T02:48:01.981Z,3.90
2022-08-07T02:50:34.306Z,4.30
2022-08-07T02:53:10.969Z,6.65
2022-08-07T02:56:04.469Z,4.38
2022-08-07T02:58:34.977Z,5.15
2022-08-07T03:01:04.175Z,4.32
2022-08-07T03:03:49.093Z,4.50
2022-08-07T03:06:26.103Z,4.82
2022-08-07T03:09:06.167Z,4.07
2022-08-07T03:11:38.959Z,4.53
2022-08-07T03:14:22.573Z,6.32
2022-08-07T03:16:50.953Z,5.05
2022-08-07T03:19:20.731Z,7.70
2022-08-07T03:21:51.193Z,6.72
2022-08-07T03:24:27.366Z,5.50
2022-08-07T03:27:00.853Z,6.20
2022-08-07T03:29:38.585Z,4.90
2022-08-07T03:32:14.766Z,4.25
2022-08-07T03:34:47.447Z,7.75
2022-08-07T03:37:37.335Z,4.95
2022-08-07T03:42:44.039Z,5.00
2022-08-07T03:45:12.364Z,4.60
2022-08-07T03:47:59.665Z,4.32
2022-08-07T03:50:29.065Z,4.50
2022-08-07T03:52:59.262Z,4.93
2022-08-07T03:55:57.490Z,4.93
2022-08-07T03:59:05.520Z,5.75
2022-08-07T04:01:11.331Z,4.70
2022-08-07T04:03:53.831Z,5.63
2022-08-07T04:06:37.258Z,5.28
2022-08-07T04:09:15.026Z,6.20
2022-08-07T04:12:25.548Z,6.88
2022-08-07T04:14:43.888Z,5.95
2022-08-07T04:17:20.565Z,5.78
2022-08-07T04:22:27.401Z,8.02
2022-08-07T04:25:01.517Z,6.65
2022-08-07T04:27:35.668Z,6.45
2022-08-07T04:30:11.658Z,5.38
2022-08-07T04:32:58.573Z,7.32
2022-08-07T04:35:26.790Z,6.65
2022-08-07T04:38:05.387Z,5.82
2022-08-07T04:40:51.391Z,5.32
2022-08-07T04:44:09.922Z,7.55
2022-08-07T04:46:59.650Z,6.70
2022-08-07T04:49:47.575Z,6.75
2022-08-07T04:52:59.282Z,8.57
2022-08-07T04:58:23.767Z,6.43
2022-08-07T05:00:07.945Z,7.18
2022-08-07T05:01:52.330Z,6.07
2022-08-07T05:04:26.343Z,6.13
2022-08-07T05:07:09.573Z,5.38
2022-08-07T05:09:55.019Z,6.45
2022-08-07T05:12:30.602Z,7.30
2022-08-07T05:15:21.801Z,5.90
2022-08-07T05:17:58.251Z,6.72
2022-08-07T05:20:37.974Z,6.97
2022-08-07T05:23:17.766Z,6.45
2022-08-07T05:26:11.084Z,6.13
2022-08-07T05:28:40.482Z,6.32
2022-08-07T05:31:11.466Z,6.05
2022-08-07T05:34:00.993Z,5.75
2022-08-07T05:36:32.400Z,6.57
2022-08-07T05:40:06.821Z,6.15
2022-08-07T05:42:01.779Z,7.25
2022-08-07T05:44:35.126Z,6.18
2022-08-07T05:47:38.568Z,6.00
2022-08-07T05:49:52.961Z,7.07
2022-08-07T05:52:32.580Z,5.00
2022-08-07T05:55:10.297Z,6.45
2022-08-07T05:57:42.282Z,6.85
2022-08-07T06:00:16.134Z,8.57
2022-08-07T06:02:49.327Z,5.55
2022-08-07T06:05:18.191Z,6.68
2022-08-07T06:08:13.169Z,5.28
2022-08-07T06:10:38.837Z,5.32
2022-08-07T06:13:06.309Z,6.10
2022-08-07T06:15:42.991Z,6.55
2022-08-07T06:18:13.924Z,5.57
2022-08-07T06:20:51.127Z,6.15
2022-08-07T06:24:37.816Z,5.60
2022-08-07T06:26:20.780Z,6.45
2022-08-07T06:28:53.610Z,6.85
2022-08-07T06:31:24.270Z,5.82
2022-08-07T06:34:09.529Z,4.50
2022-08-07T06:36:38.135Z,4.88
2022-08-07T06:40:13.411Z,6.05
2022-08-07T06:42:32.997Z,5.63
2022-08-07T06:45:04.665Z,5.82
2022-08-07T06:47:38.745Z,5.53
2022-08-07T06:50:20.473Z,6.80
2022-08-07T06:52:53.624Z,5.10
2022-08-07T06:56:00.436Z,6.85
2022-08-07T06:58:21.485Z,5.28
2022-08-07T07:00:53.215Z,4.65
2022-08-07T07:03:39.741Z,4.22
2022-08-07T07:06:11.409Z,6.00
2022-08-07T07:08:39.870Z,3.90
2022-08-07T07:12:08.478Z,5.00
2022-08-07T07:14:03.997Z,6.00
2022-08-07T07:16:49.683Z,4.45
2022-08-07T07:19:55.547Z,4.22
2022-08-07T07:22:39.868Z,4.63
2022-08-07T07:26:30.773Z,4.07
2022-08-07T07:28:07.573Z,3.75
2022-08-07T07:31:00.008Z,4.50
2022-08-07T07:33:30.576Z,3.83
2022-08-07T07:36:05.650Z,4.68
2022-08-07T07:38:43.546Z,4.25
2022-08-07T07:41:16.642Z,4.60
2022-08-07T07:43:47.907Z,6.68
2022-08-07T07:46:54.097Z,2.83
2022-08-07T07:50:34.646Z,3.47
2022-08-07T07:52:18.761Z,4.28
2022-08-07T07:54:50.592Z,5.00
2022-08-07T07:57:43.955Z,3.25
2022-08-07T08:00:15.072Z,3.55
2022-08-07T08:03:07.843Z,4.65
2022-08-07T08:05:50.954Z,5.80
2022-08-07T08:08:35.160Z,7.05
2022-08-07T08:11:16.548Z,5.45
2022-08-07T08:13:54.728Z,5.82
2022-08-07T08:16:36.980Z,5.97
2022-08-07T08:19:17.934Z,6.25
2022-08-07T08:22:16.676Z,4.93
2022-08-07T08:25:24.612Z,4.57
2022-08-07T08:28:01.796Z,7.50
2022-08-07T08:30:37.488Z,8.23
2022-08-07T08:33:17.004Z,5.72
2022-08-07T08:35:49.859Z,4.28
2022-08-07T08:38:29.602Z,4.55
2022-08-07T08:41:56.742Z,5.88
2022-08-07T08:44:58.384Z,3.35
2022-08-07T08:47:47.383Z,5.38
2022-08-07T08:50:45.397Z,4.90
2022-08-07T08:53:19.724Z,4.57
2022-08-07T08:56:08.437Z,5.90
2022-08-07T08:58:58.043Z,3.53
2022-08-07T09:01:44.165Z,4.65
2022-08-07T09:04:28.680Z,32.45
2022-08-07T09:07:11.269Z,8.20
2022-08-07T09:10:02.546Z,8.88
2022-08-07T09:12:40.003Z,6.35
2022-08-07T09:16:22.941Z,5.85
2022-08-07T09:18:53.410Z,4.03
2022-08-07T09:22:10.019Z,4.95
2022-08-07T09:24:55.522Z,7.40
2022-08-07T09:28:00.413Z,6.72
2022-08-07T09:30:45.415Z,5.90
2022-08-07T09:33:57.620Z,6.95
2022-08-07T09:36:43.146Z,4.72
2022-08-07T09:39:55.454Z,3.15
2022-08-07T09:42:33.889Z,2.20
2022-08-07T09:46:29.095Z,4.38
2022-08-07T09:48:25.130Z,4.78
2022-08-07T09:52:09.973Z,3.50
2022-08-07T09:54:27.263Z,4.75
2022-08-07T09:57:13.037Z,4.00
2022-08-07T10:03:08.554Z,4.53
2022-08-07T10:05:59.739Z,3.15
2022-08-07T10:09:00.452Z,2.47
2022-08-07T10:12:02.249Z,3.88
2022-08-07T10:15:00.473Z,12.07
2022-08-07T10:18:00.976Z,7.32
2022-08-07T10:20:57.605Z,5.80
2022-08-07T10:24:05.156Z,5.53
2022-08-07T10:26:51.760Z,4.85
2022-08-07T10:29:53.060Z,5.90
2022-08-07T10:32:59.948Z,5.97
2022-08-07T10:35:55.567Z,7.00
2022-08-07T10:38:48.990Z,7.38
2022-08-07T10:41:51.452Z,4.53
2022-08-07T10:45:45.116Z,8.13
2022-08-07T10:48:35.516Z,5.40
2022-08-07T10:51:16.598Z,6.40
2022-08-07T10:54:40.878Z,6.35
2022-08-07T10:57:51.531Z,5.90
2022-08-07T11:00:39.294Z,4.05
2022-08-07T11:03:37.332Z,6.85
2022-08-07T11:06:32.488Z,3.97
2022-08-07T11:09:11.496Z,5.07
2022-08-07T11:11:59.141Z,6.22
2022-08-07T11:14:46.453Z,10.23
2022-08-07T11:17:43.270Z,3.97
2022-08-07T11:20:31.340Z,6.07
2022-08-07T11:23:20.853Z,4.28
2022-08-07T11:26:13.176Z,3.97
2022-08-07T11:28:58.429Z,4.13
2022-08-07T11:31:37.402Z,4.80
2022-08-07T11:34:11.282Z,5.18
2022-08-07T11:37:13.269Z,3.10
2022-08-07T11:40:05.691Z,1.88
2022-08-07T11:42:52.813Z,6.63
2022-08-07T11:45:35.875Z,5.95
2022-08-07T11:48:13.909Z,9.85
2022-08-07T11:51:09.759Z,4.15
2022-08-07T11:54:01.390Z,2.38
2022-08-07T11:56:59.211Z,4.60
2022-08-07T12:00:10.493Z,3.83
2022-08-07T12:02:57.432Z,5.55
2022-08-07T12:05:49.013Z,6.68
2022-08-07T12:08:34.919Z,6.00
2022-08-07T12:11:23.901Z,4.82
2022-08-07T12:14:20.818Z,7.18
2022-08-07T12:16:58.736Z,4.25
2022-08-07T12:19:35.943Z,3.90
2022-08-07T12:22:47.247Z,5.47
2022-08-07T12:26:03.493Z,5.18
2022-08-07T12:29:16.036Z,5.45
2022-08-07T12:32:04.055Z,4.80
2022-08-07T12:34:35.951Z,10.27
2022-08-07T12:37:08.642Z,10.30
2022-08-07T12:39:51.491Z,6.07
2022-08-07T12:42:27.670Z,4.53
2022-08-07T12:45:07.262Z,7.82
2022-08-07T12:47:49.224Z,5.90
2022-08-07T12:50:38.088Z,4.50
2022-08-07T12:53:18.994Z,5.15
2022-08-07T12:56:02.796Z,3.83
2022-08-07T12:58:37.497Z,5.55
2022-08-07T13:01:32.907Z,5.20
2022-08-07T13:04:32.530Z,4.18
2022-08-07T13:08:11.647Z,6.13
2022-08-07T13:10:37.086Z,6.13
2022-08-07T13:13:47.116Z,7.00
2022-08-07T13:16:22.821Z,2.70
2022-08-07T13:19:35.055Z,3.72
2022-08-07T13:22:32.117Z,3.47
2022-08-07T13:25:10.365Z,7.53
2022-08-07T13:28:11.370Z,3.83
2022-08-07T13:34:29.889Z,3.25
2022-08-07T13:36:19.376Z,4.88
2022-08-07T13:39:12.776Z,3.50
2022-08-07T13:41:57.929Z,5.07
2022-08-07T13:44:34.300Z,3.78
2022-08-07T13:47:09.206Z,5.40
2022-08-07T13:52:38.079Z,2.72
2022-08-07T13:55:19.486Z,5.03
2022-08-07T13:58:50.485Z,5.68
2022-08-07T14:01:27.366Z,5.22
2022-08-07T14:04:07.774Z,4.35
2022-08-07T14:06:39.128Z,3.75
2022-08-07T14:10:01.279Z,7.05
2022-08-07T14:12:13.745Z,4.75
2022-08-07T14:14:44.854Z,6.73
2022-08-07T14:18:13.588Z,4.57
2022-08-07T14:20:40.932Z,4.07
2022-08-07T14:23:14.777Z,4.43
2022-08-07T14:26:05.523Z,7.05
2022-08-07T14:28:59.633Z,5.03
2022-08-07T14:31:26.132Z,7.35
2022-08-07T14:34:20.236Z,4.53
2022-08-07T14:36:56.230Z,6.35
2022-08-07T14:40:17.797Z,6.60
2022-08-07T14:42:20.640Z,5.95
2022-08-07T14:44:53.735Z,2.60
2022-08-07T14:47:33.738Z,4.70
2022-08-07T14:50:07.006Z,4.75
2022-08-07T14:52:39.953Z,4.90
2022-08-07T14:55:11.382Z,3.42
2022-08-07T14:57:58.387Z,4.47
2022-08-07T15:00:31.077Z,3.30
2022-08-07T15:03:19.130Z,5.25
2022-08-07T15:08:54.620Z,3.55
2022-08-07T15:11:53.250Z,3.08
2022-08-07T15:14:22.847Z,3.50
2022-08-07T15:17:16.778Z,3.35
2022-08-07T15:20:33.445Z,3.05
2022-08-07T15:22:53.744Z,3.90
2022-08-07T15:34:14.738Z,3.65
2022-08-07T15:37:03.274Z,5.55
2022-08-07T15:39:56.853Z,2.80
2022-08-07T15:42:43.460Z,2.00
2022-08-07T15:45:22.652Z,2.30
2022-08-07T15:48:02.249Z,4.47
2022-08-07T15:50:37.473Z,2.97
2022-08-07T15:53:42.170Z,2.88
2022-08-07T15:56:33.445Z,5.45
2022-08-07T15:59:16.405Z,2.20
2022-08-07T16:02:01.758Z,5.38
2022-08-07T16:04:33.541Z,4.95
2022-08-07T16:08:30.794Z,2.92
2022-08-07T16:10:02.855Z,6.28
2022-08-07T16:13:01.255Z,3.05
2022-08-07T16:16:48.817Z,6.03
2022-08-07T16:19:59.223Z,3.53
2022-08-07T16:22:55.057Z,5.43
2022-08-07T16:25:52.728Z,5.82
2022-08-07T16:30:07.195Z,14.27
2022-08-07T16:31:51.407Z,10.15
2022-08-07T16:34:24.051Z,5.40
2022-08-07T16:38:06.140Z,4.00
2022-08-07T16:40:28.103Z,5.60
2022-08-07T16:43:23.662Z,6.03
2022-08-07T16:47:09.532Z,5.93
2022-08-07T16:50:28.057Z,3.80
2022-08-07T16:54:02.872Z,4.82
2022-08-07T16:59:46.982Z,5.47
2022-08-07T17:02:51.588Z,8.48
2022-08-07T17:06:26.713Z,8.10
2022-08-07T17:08:19.091Z,5.50
2022-08-07T17:10:57.452Z,6.32
2022-08-07T17:14:17.772Z,5.18
2022-08-07T17:16:56.063Z,7.07
2022-08-07T17:20:01.957Z,5.40
2022-08-07T17:22:56.772Z,4.88
2022-08-07T17:25:51.264Z,4.55
2022-08-07T17:28:32.350Z,5.97
2022-08-07T17:31:16.137Z,4.18
2022-08-07T17:34:34.578Z,5.75
2022-08-07T17:37:09.666Z,3.40
2022-08-07T17:39:57.689Z,3.42
2022-08-07T17:42:36.322Z,5.63
2022-08-07T17:45:32.121Z,4.05
2022-08-07T17:48:10.271Z,5.07
2022-08-07T17:50:54.144Z,3.15
2022-08-07T17:54:00.151Z,5.88
2022-08-07T17:56:49.491Z,6.72
2022-08-07T17:59:36.207Z,4.40
2022-08-07T18:02:16.818Z,3.35
2022-08-07T18:05:01.336Z,4.25
2022-08-07T18:08:15.500Z,3.38
2022-08-07T18:12:07.105Z,6.93
2022-08-07T18:14:01.519Z,1.83
2022-08-07T18:16:58.094Z,3.70
2022-08-07T18:21:08.672Z,4.05
2022-08-07T18:22:35.472Z,5.72
2022-08-07T18:25:19.516Z,5.28
2022-08-07T18:27:53.709Z,4.03
2022-08-07T18:30:50.158Z,7.20
2022-08-07T18:33:55.072Z,3.58
2022-08-07T18:36:33.780Z,2.95
2022-08-07T18:40:05.638Z,2.92
2022-08-07T18:42:16.263Z,4.15
2022-08-07T18:45:43.047Z,4.65
2022-08-07T18:50:06.087Z,3.85
2022-08-07T18:52:34.674Z,3.05
2022-08-07T18:54:38.952Z,7.03
2022-08-07T18:57:30.892Z,5.90
2022-08-07T19:00:33.130Z,6.20
2022-08-07T19:03:12.453Z,5.78
2022-08-07T19:06:05.751Z,6.13
2022-08-07T19:09:09.377Z,4.38
2022-08-07T19:15:04.066Z,6.13
2022-08-07T19:18:34.020Z,5.28
2022-08-07T19:21:43.964Z,4.95
2022-08-07T19:24:12.759Z,3.58
2022-08-07T19:31:04.084Z,3.60
2022-08-07T19:32:47.934Z,2.75
2022-08-07T19:35:23.292Z,3.38
2022-08-07T19:37:58.373Z,4.40
2022-08-07T19:40:31.923Z,4.97
2022-08-07T19:43:08.706Z,4.78
2022-08-07T19:46:05.977Z,4.90
2022-08-07T19:48:42.945Z,6.03
2022-08-07T19:51:19.797Z,5.07
2022-08-07T19:54:34.190Z,5.97
2022-08-07T19:57:51.950Z,4.90
2022-08-07T19:59:42.029Z,4.18
2022-08-07T20:02:19.767Z,7.20
2022-08-07T20:04:52.767Z,5.22
2022-08-07T20:07:45.921Z,8.35
2022-08-07T20:10:37.085Z,7.00
2022-08-07T20:13:23.229Z,6.78
2022-08-07T20:15:57.726Z,7.85
2022-08-07T20:18:33.365Z,4.47
2022-08-07T20:21:20.835Z,4.60
2022-08-07T20:24:00.470Z,8.25
2022-08-07T20:26:44.796Z,7.55
2022-08-07T20:29:49.098Z,8.73
2022-08-07T20:32:11.562Z,5.90
2022-08-07T20:35:07.596Z,9.98
2022-08-07T20:37:59.328Z,12.35
2022-08-07T20:40:33.084Z,12.63
2022-08-07T20:43:09.586Z,10.85
2022-08-07T20:46:25.606Z,13.25
2022-08-07T20:48:34.665Z,14.00
2022-08-07T20:51:09.827Z,13.18
2022-08-07T20:54:03.946Z,11.30
2022-08-07T20:56:34.688Z,17.45
2022-08-07T20:59:06.044Z,12.15
2022-08-07T21:01:58.460Z,12.63
2022-08-07T21:04:29.806Z,13.10
2022-08-07T21:07:04.423Z,11.85
2022-08-07T21:09:52.373Z,11.85
2022-08-07T21:12:31.822Z,10.38
2022-08-07T21:15:03.588Z,14.27
2022-08-07T21:18:06.567Z,13.93
2022-08-07T21:20:30.240Z,12.07
2022-08-07T21:23:26.342Z,12.18
2022-08-07T21:26:20.505Z,11.75
2022-08-07T21:29:00.744Z,16.75
2022-08-07T21:32:46.897Z,12.35
2022-08-07T21:34:49.741Z,12.30
2022-08-07T21:37:17.101Z,10.55
2022-08-07T21:39:57.917Z,13.68
2022-08-07T21:42:56.934Z,14.70
2022-08-07T21:46:09.033Z,12.88
2022-08-07T21:48:42.465Z,13.38
2022-08-07T21:51:24.831Z,11.23
2022-08-07T21:54:01.039Z,14.13
2022-08-07T21:56:56.193Z,16.27
2022-08-07T22:00:04.577Z,13.93
2022-08-07T22:02:44.820Z,14.30
2022-08-07T22:05:44.845Z,17.20
2022-08-07T22:08:10.421Z,14.82
2022-08-07T22:10:38.389Z,13.18
2022-08-07T22:13:14.275Z,11.13
2022-08-07T22:16:39.067Z,10.40
2022-08-07T22:19:07.411Z,11.68
2022-08-07T22:22:02.126Z,10.57
2022-08-07T22:25:07.645Z,12.23
2022-08-07T22:28:08.162Z,8.68
2022-08-07T22:30:38.473Z,7.25
2022-08-07T22:33:12.336Z,8.38
2022-08-07T22:35:54.690Z,6.63
2022-08-07T22:39:02.738Z,7.32
2022-08-07T22:42:04.023Z,7.80
2022-08-07T22:44:34.468Z,7.88
2022-08-07T22:47:08.623Z,7.85
2022-08-07T22:49:59.754Z,8.20
2022-08-07T22:52:37.624Z,9.20
2022-08-07T22:55:46.386Z,9.45
2022-08-07T23:01:22.516Z,9.82
2022-08-07T23:06:59.183Z,10.02
2022-08-07T23:10:01.037Z,14.52
2022-08-07T23:12:57.829Z,14.10
2022-08-07T23:16:06.184Z,16.90
2022-08-07T23:19:15.204Z,13.68
2022-08-07T23:21:59.531Z,14.80
2022-08-07T23:24:57.922Z,10.82
2022-08-07T23:28:21.026Z,11.52
2022-08-07T23:31:05.876Z,12.60
2022-08-07T23:34:22.322Z,15.07
2022-08-07T23:37:22.379Z,14.00
2022-08-07T23:40:09.024Z,11.88
2022-08-07T23:42:55.300Z,11.82
2022-08-07T23:46:03.754Z,13.48
2022-08-07T23:49:07.855Z,11.30
2022-08-07T23:53:01.037Z,13.18
2022-08-07T23:54:52.812Z,10.85
2022-08-07T23:57:31.081Z,12.07
